Metar z połowy godziny Komunikat METAR ze strony awiacja.imgw.pl Metar Mil EPMM METAR EPMM 230800Z 29019KT 9999 SCT030 SCT070 07/M02 Q1018 RMK 073 051 4/3=